Time;durP1;ratioP1;P1;durP2;ratioP2;P2;SDS_P1;SDS_P2;PMS_P1;PMS_P2;Temp;Humidity;BMP_temperature;BMP_pressure;BME280_temperature;BME280_humidity;BME280_pressure;Samples;Min_cycle;Max_cycle;Signal;HPM_P1;HPM_P2
2023/04/17 00:01:50;;;;;;;4.27;3.13;;;;;;;11.72;69.53;100077.89;1475505;88;21331;-79
2023/04/17 00:04:17;;;;;;;6.30;3.70;;;;;;;11.73;69.43;100075.56;1473197;88;21521;-79
2023/04/17 00:06:43;;;;;;;7.10;3.30;;;;;;;11.72;69.78;100075.74;1466747;88;21409;-78
2023/04/17 00:09:13;;;;;;;6.63;3.43;;;;;;;11.67;70.06;100069.59;1474872;88;21403;-78
2023/04/17 00:11:39;;;;;;;5.17;3.90;;;;;;;11.62;70.43;100073.22;1474041;88;21374;-78
2023/04/17 00:14:05;;;;;;;7.03;4.23;;;;;;;11.59;70.12;100067.42;1459857;88;21418;-79
2023/04/17 00:16:32;;;;;;;4.87;3.93;;;;;;;11.59;69.83;100072.73;1472169;88;22334;-80
2023/04/17 00:18:58;;;;;;;5.97;3.93;;;;;;;11.54;70.33;100071.91;1469595;88;22224;-78
2023/04/17 00:21:25;;;;;;;4.60;3.50;;;;;;;11.54;69.82;100071.91;1470444;88;21345;-79
2023/04/17 00:23:51;;;;;;;9.97;3.53;;;;;;;11.52;70.48;100068.58;1477369;88;21344;-78
2023/04/17 00:26:18;;;;;;;4.33;3.53;;;;;;;11.50;70.37;100068.73;1465314;88;21478;-79
2023/04/17 00:28:46;;;;;;;11.47;4.40;;;;;;;11.50;70.32;100067.91;1479372;88;21518;-80
2023/04/17 00:33:40;;;;;;;5.10;3.30;;;;;;;11.60;69.84;100063.80;1508335;85;28521;-79
2023/04/17 00:36:12;;;;;;;7.17;3.83;;;;;;;11.56;69.62;100065.92;1486961;87;21539;-80
2023/04/17 00:38:37;;;;;;;6.62;3.22;;;;;;;11.55;69.33;100065.61;1470593;87;21529;-80
2023/04/17 00:41:03;;;;;;;6.20;3.77;;;;;;;11.56;69.15;100065.92;1438189;91;21576;-80
2023/04/17 00:43:29;;;;;;;5.07;3.67;;;;;;;11.55;69.41;100073.55;1422816;91;21585;-79
2023/04/17 00:45:56;;;;;;;7.90;3.53;;;;;;;11.57;69.21;100073.41;1434898;90;22389;-79
2023/04/17 00:48:23;;;;;;;4.93;3.63;;;;;;;11.57;69.39;100078.70;1440766;91;22125;-79
2023/04/17 00:50:49;;;;;;;4.53;3.03;;;;;;;11.58;69.41;100072.41;1436606;90;21678;-79
2023/04/17 00:53:17;;;;;;;6.97;3.30;;;;;;;11.59;69.42;100073.55;1434135;90;21673;-80
2023/04/17 00:55:46;;;;;;;5.37;3.83;;;;;;;11.58;69.27;100069.75;1424352;91;21508;-80
2023/04/17 00:58:12;;;;;;;6.10;3.53;;;;;;;11.57;69.26;100067.61;1441906;90;21444;-79
2023/04/17 01:00:39;;;;;;;5.63;3.60;;;;;;;11.57;69.09;100071.58;1433132;90;21420;-80
2023/04/17 01:03:05;;;;;;;5.50;2.80;;;;;;;11.57;69.17;100076.88;1442344;90;21493;-80
2023/04/17 01:05:34;;;;;;;4.60;3.73;;;;;;;11.55;69.02;100074.88;1433658;90;22176;-80
2023/04/17 01:07:59;;;;;;;5.37;3.60;;;;;;;11.52;69.15;100073.88;1443982;89;22298;-81
2023/04/17 01:10:25;;;;;;;9.17;4.50;;;;;;;11.49;69.43;100071.56;1423202;89;21538;-80
2023/04/17 01:13:03;;;;;;;3.93;3.13;;;;;;;11.46;69.40;100077.19;1431174;89;21486;-81
2023/04/17 01:15:30;;;;;;;6.17;3.77;;;;;;;11.39;70.22;100074.83;1425991;89;21620;-79
2023/04/17 01:17:56;;;;;;;6.53;3.90;;;;;;;11.35;70.41;100076.98;1435384;89;21434;-80
2023/04/17 01:20:24;;;;;;;4.40;3.30;;;;;;;11.34;70.80;100078.48;1432483;89;21501;-79
2023/04/17 01:22:51;;;;;;;5.13;3.43;;;;;;;11.36;70.56;100079.12;1438817;89;21590;-80
2023/04/17 01:25:18;;;;;;;7.33;4.53;;;;;;;11.36;70.74;100076.48;1439597;89;22960;-79
2023/04/17 01:27:44;;;;;;;7.20;3.97;;;;;;;11.37;70.31;100076.83;1434879;89;22301;-79
2023/04/17 01:30:12;;;;;;;6.67;3.67;;;;;;;11.34;70.30;100079.31;1432215;89;21603;-79
2023/04/17 01:32:39;;;;;;;6.10;3.63;;;;;;;11.32;70.42;100079.95;1441896;89;21502;-80
2023/04/17 01:35:06;;;;;;;6.10;4.40;;;;;;;11.29;71.02;100079.78;1476724;88;21359;-79
2023/04/17 01:37:33;;;;;;;5.53;4.07;;;;;;;11.28;70.26;100074.16;1460481;87;22601;-79
2023/04/17 01:39:59;;;;;;;5.53;4.50;;;;;;;11.27;70.38;100073.80;1468155;88;21405;-79
2023/04/17 01:42:26;;;;;;;4.93;3.17;;;;;;;11.26;70.14;100078.78;1479342;88;21590;-79
2023/04/17 01:44:54;;;;;;;5.17;3.90;;;;;;;11.24;70.66;100078.59;1468869;87;22468;-79
2023/04/17 01:47:20;;;;;;;5.50;3.73;;;;;;;11.19;71.01;100072.47;1475656;88;21492;-79
2023/04/17 01:49:46;;;;;;;7.03;3.90;;;;;;;11.17;71.64;100071.80;1482251;88;21500;-79
2023/04/17 01:52:12;;;;;;;6.87;4.70;;;;;;;11.13;71.42;100079.70;1461265;87;21544;-79
2023/04/17 01:54:39;;;;;;;4.80;3.60;;;;;;;11.07;72.25;100073.23;1462492;88;21486;-78
2023/04/17 01:57:05;;;;;;;5.43;4.10;;;;;;;11.02;72.34;100069.42;1461902;88;21436;-78
2023/04/17 01:59:31;;;;;;;6.93;4.60;;;;;;;10.97;72.43;100074.36;1454697;89;21540;-79
2023/04/17 02:01:57;;;;;;;8.83;4.73;;;;;;;10.95;72.39;100073.69;1478181;88;21375;-79
2023/04/17 02:04:23;;;;;;;12.07;4.77;;;;;;;10.95;72.51;100073.69;1457689;88;21521;-78
2023/04/17 02:06:49;;;;;;;7.87;4.47;;;;;;;10.94;72.72;100076.01;1461396;88;21427;-79
2023/04/17 02:09:15;;;;;;;10.67;4.20;;;;;;;10.90;73.30;100078.62;1453192;89;21426;-79
2023/04/17 02:11:41;;;;;;;6.00;3.90;;;;;;;10.90;73.58;100076.80;1476040;88;21543;-79
2023/04/17 02:14:08;;;;;;;5.70;4.80;;;;;;;10.89;73.30;100074.32;1480607;88;21411;-78
2023/04/17 02:16:34;;;;;;;6.17;4.37;;;;;;;10.84;74.19;100086.20;1467287;87;21407;-79
2023/04/17 02:19:00;;;;;;;13.10;5.17;;;;;;;10.77;74.82;100079.88;1456579;88;22792;-79
2023/04/17 02:21:27;;;;;;;4.90;4.00;;;;;;;10.73;75.19;100090.47;1457557;88;21441;-79
2023/04/17 02:23:53;;;;;;;9.37;4.97;;;;;;;10.73;75.47;100086.49;1459548;88;21360;-79
2023/04/17 02:26:19;;;;;;;8.37;5.10;;;;;;;10.73;75.27;100094.44;1460044;88;21414;-79
2023/04/17 02:28:45;;;;;;;6.00;5.33;;;;;;;10.66;76.66;100086.77;1480888;88;21426;-78
2023/04/17 02:31:12;;;;;;;9.00;5.13;;;;;;;10.65;76.88;100085.62;1450811;88;22262;-80
2023/04/17 02:33:38;;;;;;;10.07;6.00;;;;;;;10.58;77.90;100081.42;1429695;91;21644;-80
2023/04/17 02:36:06;;;;;;;6.77;5.63;;;;;;;10.55;77.54;100086.53;1463113;88;21389;-79
2023/04/17 02:38:33;;;;;;;8.83;4.83;;;;;;;10.52;78.31;100087.34;1430713;91;21563;-80
2023/04/17 02:40:59;;;;;;;7.97;5.07;;;;;;;10.51;78.34;100088.34;1434671;91;21297;-79
2023/04/17 02:43:25;;;;;;;13.90;4.83;;;;;;;10.49;78.65;100083.69;1457879;88;22292;-79
2023/04/17 02:45:52;;;;;;;7.93;5.23;;;;;;;10.47;78.34;100086.97;1455130;88;22025;-79
2023/04/17 02:48:18;;;;;;;10.30;5.57;;;;;;;10.47;78.34;100089.14;1454999;89;21422;-78
2023/04/17 02:50:44;;;;;;;7.73;5.10;;;;;;;10.47;78.47;100086.50;1459298;89;22833;-78
2023/04/17 02:53:10;;;;;;;6.40;4.70;;;;;;;10.50;78.83;100085.33;1459363;89;21638;-80
2023/04/17 02:55:36;;;;;;;6.77;5.07;;;;;;;10.51;78.76;100081.72;1460993;89;21444;-80
2023/04/17 02:58:03;;;;;;;6.43;4.83;;;;;;;10.49;79.21;100085.00;1463359;89;22279;-80
2023/04/17 03:00:29;;;;;;;11.67;5.17;;;;;;;10.46;79.20;100089.28;1462496;89;21495;-80
2023/04/17 03:02:56;;;;;;;12.20;4.80;;;;;;;10.43;79.10;100082.48;1455515;89;21510;-80
2023/04/17 03:05:22;;;;;;;9.33;5.70;;;;;;;10.47;78.77;100084.32;1460762;89;22331;-78
2023/04/17 03:07:51;;;;;;;7.10;4.90;;;;;;;10.47;79.10;100089.14;1461800;89;21584;-79
2023/04/17 03:10:17;;;;;;;9.27;5.97;;;;;;;10.48;78.81;100087.33;1436465;89;21480;-80
2023/04/17 03:12:44;;;;;;;8.63;5.70;;;;;;;10.50;78.97;100085.33;1452859;89;21502;-82
2023/04/17 03:15:11;;;;;;;7.40;5.53;;;;;;;10.49;78.14;100082.36;1451615;89;21621;-79
2023/04/17 03:17:37;;;;;;;12.37;5.50;;;;;;;10.48;78.26;100080.71;1457009;89;21621;-79
2023/04/17 03:20:06;;;;;;;6.33;4.73;;;;;;;10.48;79.02;100082.86;1453168;89;22515;-81
2023/04/17 03:22:33;;;;;;;8.60;4.90;;;;;;;10.48;78.53;100084.68;1454013;89;21488;-82
2023/04/17 03:24:59;;;;;;;8.87;5.53;;;;;;;10.48;78.62;100090.80;1459910;89;21571;-81
2023/04/17 03:27:25;;;;;;;10.30;6.47;;;;;;;10.48;78.70;100091.30;1459971;89;21465;-82
2023/04/17 03:29:55;;;;;;;6.50;5.23;;;;;;;10.52;78.16;100088.66;1459442;89;22523;-81
2023/04/17 03:32:21;;;;;;;7.93;5.23;;;;;;;10.50;78.10;100088.84;1451088;89;22272;-82
2023/04/17 03:34:47;;;;;;;6.30;5.13;;;;;;;10.44;79.18;100083.31;1431744;90;21524;-80
2023/04/17 03:37:14;;;;;;;5.07;4.50;;;;;;;10.45;78.49;100090.28;1450477;90;22553;-81
2023/04/17 03:39:41;;;;;;;7.93;5.47;;;;;;;10.45;79.10;100092.43;1458433;90;22472;-82
2023/04/17 03:42:10;;;;;;;6.40;5.00;;;;;;;10.47;79.06;100093.12;1454209;90;21480;-81
2023/04/17 03:44:35;;;;;;;6.23;5.07;;;;;;;10.46;78.97;100087.97;1454416;90;21526;-81
2023/04/17 03:47:01;;;;;;;6.13;4.87;;;;;;;10.45;78.59;100092.93;1458037;89;21496;-82
2023/04/17 03:49:27;;;;;;;8.67;4.57;;;;;;;10.39;79.48;100091.23;1453608;90;21407;-81
2023/04/17 03:51:53;;;;;;;6.47;5.03;;;;;;;10.41;79.46;100096.84;1461567;90;22456;-82
2023/04/17 03:54:20;;;;;;;11.70;6.17;;;;;;;10.38;79.75;100101.45;1446210;89;21532;-82
2023/04/17 03:56:46;;;;;;;8.40;4.77;;;;;;;10.41;79.40;100099.49;1455986;90;21496;-83
2023/04/17 03:59:12;;;;;;;8.97;5.83;;;;;;;10.43;79.49;100096.21;1453990;90;21414;-83
2023/04/17 04:01:38;;;;;;;6.23;5.43;;;;;;;10.41;79.85;100099.49;1447375;90;21502;-82
2023/04/17 04:04:04;;;;;;;7.93;5.13;;;;;;;10.41;80.00;100096.35;1450857;90;21570;-82
2023/04/17 04:06:30;;;;;;;6.40;4.70;;;;;;;10.41;79.92;100098.17;1452068;90;21541;-81
2023/04/17 04:08:56;;;;;;;9.13;5.43;;;;;;;10.46;79.33;100101.19;1455060;90;22546;-82
2023/04/17 04:11:23;;;;;;;7.80;5.20;;;;;;;10.48;79.66;100097.91;1424134;90;21496;-80
2023/04/17 04:13:49;;;;;;;8.43;4.73;;;;;;;10.50;79.73;100101.20;1445927;90;21525;-78
2023/04/17 04:16:15;;;;;;;6.97;5.37;;;;;;;10.46;80.37;100102.52;1451975;90;22300;-79
2023/04/17 04:18:42;;;;;;;10.47;5.43;;;;;;;10.46;80.19;100102.52;1443555;89;21422;-78
2023/04/17 04:21:09;;;;;;;10.20;5.97;;;;;;;10.51;80.05;100105.53;1459301;89;22042;-79
2023/04/17 04:23:39;;;;;;;6.43;5.00;;;;;;;10.55;80.10;100112.16;1453219;90;21459;-79
2023/04/17 04:26:05;;;;;;;7.07;5.37;;;;;;;10.56;79.96;100110.70;1425949;90;21518;-78
2023/04/17 04:28:31;;;;;;;7.17;5.23;;;;;;;10.56;80.04;100115.17;1456566;89;21651;-79
2023/04/17 04:30:57;;;;;;;6.37;5.47;;;;;;;10.54;80.57;100111.84;1422951;90;21704;-79
2023/04/17 04:33:23;;;;;;;9.73;5.33;;;;;;;10.50;81.00;100120.59;1455025;89;22479;-80
2023/04/17 04:35:50;;;;;;;7.33;5.00;;;;;;;10.52;80.79;100110.66;1445848;89;22512;-81
2023/04/17 04:38:17;;;;;;;10.37;5.83;;;;;;;10.56;80.75;100109.88;1446584;90;21496;-78
2023/04/17 04:40:51;;;;;;;6.47;4.90;;;;;;;10.59;80.86;100113.53;1437125;89;21526;-78
2023/04/17 04:43:11;;;;;;;9.13;5.77;;;;;;;10.62;81.04;100117.19;1449221;90;21496;-79
2023/04/17 04:45:37;;;;;;;6.30;4.97;;;;;;;10.65;81.00;100118.70;1443818;90;21430;-77
2023/04/17 04:48:04;;;;;;;10.00;5.30;;;;;;;10.59;81.14;100119.66;1447467;89;21562;-78
2023/04/17 04:50:31;;;;;;;10.43;6.00;;;;;;;10.61;81.50;100119.48;1446275;90;22272;-79
2023/04/17 04:52:57;;;;;;;6.77;5.13;;;;;;;10.68;80.94;100123.68;1446248;90;21695;-79
2023/04/17 04:55:23;;;;;;;13.43;6.07;;;;;;;10.69;81.27;100127.48;1446520;89;21437;-79
2023/04/17 04:57:52;;;;;;;7.73;5.80;;;;;;;10.69;81.42;100125.33;1449041;89;21452;-80
2023/04/17 05:00:18;;;;;;;5.87;4.90;;;;;;;10.74;81.00;100123.05;1439558;90;22279;-77
2023/04/17 05:02:47;;;;;;;6.30;4.40;;;;;;;10.71;81.35;100120.72;1451375;90;21512;-78
2023/04/17 05:05:13;;;;;;;6.97;5.10;;;;;;;10.69;81.24;100124.00;1451944;89;21474;-79
2023/04/17 05:07:41;;;;;;;9.93;5.23;;;;;;;10.65;81.48;100123.49;1441067;90;21452;-79
2023/04/17 05:10:10;;;;;;;7.70;5.43;;;;;;;10.65;81.71;100124.81;1438903;90;21452;-77
2023/04/17 05:12:36;;;;;;;12.03;5.80;;;;;;;10.67;81.52;100128.61;1450742;90;21561;-79
2023/04/17 05:15:03;;;;;;;9.20;5.33;;;;;;;10.66;81.63;100130.44;1436666;90;21407;-79
2023/04/17 05:17:29;;;;;;;6.67;4.87;;;;;;;10.71;81.86;100132.13;1447576;89;21615;-76
2023/04/17 05:19:55;;;;;;;7.70;4.93;;;;;;;10.76;81.30;100133.83;1447610;90;22412;-79
2023/04/17 05:22:21;;;;;;;7.03;5.33;;;;;;;10.81;83.49;100130.69;1442158;89;21685;-77
2023/04/17 05:24:48;;;;;;;5.07;4.20;;;;;;;10.90;82.20;100128.92;1439394;90;21371;-78
2023/04/17 05:27:14;;;;;;;7.00;4.63;;;;;;;10.91;81.50;100129.28;1455070;89;22288;-78
2023/04/17 05:29:40;;;;;;;9.10;4.83;;;;;;;10.93;80.73;100125.95;1449636;90;21599;-77
2023/04/17 05:32:06;;;;;;;7.97;5.10;;;;;;;10.97;81.13;100127.32;1437882;90;21495;-79
2023/04/17 05:34:32;;;;;;;11.67;5.10;;;;;;;11.03;80.96;100131.98;1449359;89;22368;-78
2023/04/17 05:36:58;;;;;;;7.13;4.70;;;;;;;11.12;80.92;100137.66;1449167;89;21621;-77
2023/04/17 05:39:25;;;;;;;6.33;4.90;;;;;;;11.15;80.67;100129.39;1459304;89;21458;-78
2023/04/17 05:41:51;;;;;;;5.20;4.43;;;;;;;11.21;80.58;100126.59;1462244;89;21428;-78
2023/04/17 05:44:17;;;;;;;6.10;4.73;;;;;;;11.27;80.31;100132.08;1468697;89;21406;-78
2023/04/17 05:46:43;;;;;;;6.77;5.17;;;;;;;11.23;80.21;100137.38;1457298;89;21466;-78
2023/04/17 05:49:09;;;;;;;6.03;5.27;;;;;;;11.20;80.59;100138.20;1460337;89;21451;-79
2023/04/17 05:51:35;;;;;;;6.90;5.27;;;;;;;11.20;80.86;100143.49;1462084;89;21674;-76
2023/04/17 05:54:02;;;;;;;6.47;4.43;;;;;;;11.10;80.85;100145.41;1458690;89;22279;-78
2023/04/17 05:56:28;;;;;;;10.20;5.93;;;;;;;11.15;81.03;100144.45;1462351;89;21606;-78
2023/04/17 05:58:54;;;;;;;11.33;4.50;;;;;;;11.14;80.89;100145.45;1464516;89;21936;-78
2023/04/17 06:01:21;;;;;;;8.53;6.40;;;;;;;11.16;80.57;100155.37;1459789;89;21407;-78
2023/04/17 06:03:47;;;;;;;8.67;7.13;;;;;;;11.15;81.20;100154.55;1455468;89;21481;-78
2023/04/17 06:06:14;;;;;;;11.13;5.33;;;;;;;11.14;81.35;100152.90;1462122;89;21501;-78
2023/04/17 06:08:40;;;;;;;10.33;5.80;;;;;;;11.17;81.06;100155.23;1463758;89;22286;-78
2023/04/17 06:11:06;;;;;;;7.47;5.23;;;;;;;11.24;80.62;100161.55;1464649;89;21482;-78
2023/04/17 06:13:32;;;;;;;7.17;4.50;;;;;;;11.32;80.32;100173.19;1471178;89;21472;-77
2023/04/17 06:15:58;;;;;;;7.03;5.03;;;;;;;11.38;80.17;100172.55;1441336;89;22017;-78
2023/04/17 06:18:27;;;;;;;9.20;4.80;;;;;;;11.42;80.54;100174.73;1460403;88;21638;-78
2023/04/17 06:20:53;;;;;;;4.90;4.20;;;;;;;11.47;81.43;100179.53;1461169;89;21989;-78
2023/04/17 06:23:20;;;;;;;9.07;5.13;;;;;;;11.48;81.68;100183.86;1466499;89;22382;-77
2023/04/17 06:25:46;;;;;;;5.27;4.73;;;;;;;11.47;81.53;100181.68;1456055;89;21531;-78
2023/04/17 06:28:12;;;;;;;5.20;4.70;;;;;;;11.44;82.64;100179.86;1461788;89;21488;-77
2023/04/17 06:30:38;;;;;;;7.17;5.60;;;;;;;11.46;82.80;100172.58;1462894;89;21466;-79
2023/04/17 06:33:04;;;;;;;6.47;5.00;;;;;;;11.44;82.51;100183.83;1455156;89;21486;-78
2023/04/17 06:35:31;;;;;;;6.33;5.00;;;;;;;11.37;84.89;100186.80;1463656;89;21495;-75
2023/04/17 06:37:57;;;;;;;7.60;5.67;;;;;;;11.30;87.07;100183.92;1463932;89;21613;-77
2023/04/17 06:40:23;;;;;;;10.77;5.97;;;;;;;11.23;88.39;100178.44;1456352;89;21666;-78
2023/04/17 06:42:50;;;;;;;6.77;5.07;;;;;;;11.18;90.17;100180.72;1466022;89;21451;-77
2023/04/17 06:45:16;;;;;;;11.03;7.07;;;;;;;11.15;91.32;100181.03;1450302;89;21473;-77
2023/04/17 06:47:47;;;;;;;7.93;5.77;;;;;;;11.09;91.92;100172.90;1473801;88;21450;-77
2023/04/17 06:50:13;;;;;;;;;;;;;;;11.09;93.16;100171.08;1459579;89;21473;-79
2023/04/17 06:52:39;;;;;;;10.47;5.53;;;;;;;11.00;93.58;100175.50;1460197;89;20307;-77
2023/04/17 06:55:06;;;;;;;6.37;4.87;;;;;;;11.01;94.53;100169.20;1460552;89;21468;-78
2023/04/17 06:57:33;;;;;;;7.20;4.97;;;;;;;11.04;96.19;100168.06;1458844;89;22397;-78
2023/04/17 06:59:59;;;;;;;8.33;4.93;;;;;;;11.01;96.08;100173.17;1464798;89;21481;-77
2023/04/17 07:02:26;;;;;;;10.63;5.77;;;;;;;11.08;94.97;100177.38;1445171;89;21429;-75
2023/04/17 07:04:53;;;;;;;5.57;4.53;;;;;;;11.18;96.42;100175.42;1461093;89;21658;-76
2023/04/17 07:07:20;;;;;;;8.73;5.70;;;;;;;11.24;95.47;100181.91;1460574;89;21488;-77
2023/04/17 07:09:47;;;;;;;7.20;5.60;;;;;;;11.34;95.33;100188.44;1461043;89;21467;-76
2023/04/17 07:12:14;;;;;;;9.27;6.10;;;;;;;11.36;95.19;100182.47;1469181;89;21503;-77
2023/04/17 07:14:41;;;;;;;9.57;5.67;;;;;;;11.51;93.91;100175.59;1466918;89;21436;-78
2023/04/17 07:17:07;;;;;;;10.37;5.67;;;;;;;11.48;92.03;100175.41;1464520;89;21420;-78
2023/04/17 07:19:33;;;;;;;8.97;5.60;;;;;;;11.48;93.03;100185.19;1457494;89;21458;-79
2023/04/17 07:22:00;;;;;;;7.03;4.77;;;;;;;11.48;92.09;100187.84;1462081;89;21464;-79
2023/04/17 07:24:26;;;;;;;6.27;5.53;;;;;;;11.49;92.48;100182.86;1462226;89;21406;-79
2023/04/17 07:26:52;;;;;;;7.37;4.50;;;;;;;11.56;92.77;100182.55;1443454;89;21643;-77
2023/04/17 07:29:18;;;;;;;9.07;6.20;;;;;;;11.67;91.94;100194.19;1461931;89;21509;-83
2023/04/17 07:31:44;;;;;;;9.53;6.63;;;;;;;11.79;91.98;100192.57;1463398;89;21487;-82
2023/04/17 07:34:11;;;;;;;8.23;6.10;;;;;;;11.74;90.23;100191.74;1446283;89;21665;-81
2023/04/17 07:36:37;;;;;;;7.43;5.57;;;;;;;11.70;90.56;100196.52;1441339;89;21657;-84
2023/04/17 07:39:05;;;;;;;10.30;5.10;;;;;;;11.67;91.56;100202.14;1465911;89;21510;-82
2023/04/17 07:41:32;;;;;;;6.63;4.73;;;;;;;11.66;91.57;100195.19;1463422;89;21510;-81
2023/04/17 07:43:58;;;;;;;6.90;4.93;;;;;;;11.73;92.15;100196.69;1467601;89;21481;-81
2023/04/17 07:46:24;;;;;;;8.27;4.60;;;;;;;11.79;91.63;100197.38;1468051;89;22272;-82
2023/04/17 07:48:50;;;;;;;6.60;4.97;;;;;;;11.84;92.01;100204.86;1466044;89;22054;-82
2023/04/17 07:51:16;;;;;;;7.17;5.23;;;;;;;11.95;91.97;100201.94;1441983;89;21621;-82
2023/04/17 07:53:45;;;;;;;7.77;5.30;;;;;;;12.06;91.19;100199.48;1462332;89;21643;-81
2023/04/17 07:56:12;;;;;;;8.13;6.17;;;;;;;12.09;90.09;100199.98;1445389;89;22091;-83
2023/04/17 07:58:38;;;;;;;7.73;5.37;;;;;;;12.18;90.16;100197.67;1462322;89;21435;-82
2023/04/17 08:01:04;;;;;;;5.57;4.63;;;;;;;12.17;89.34;100200.00;1465113;89;22395;-82
2023/04/17 08:03:31;;;;;;;7.67;5.50;;;;;;;12.18;89.40;100202.16;1466908;89;21576;-83
2023/04/17 08:05:57;;;;;;;6.03;4.27;;;;;;;12.29;88.93;100202.34;1457874;89;22256;-82
2023/04/17 08:08:24;;;;;;;6.33;4.80;;;;;;;12.39;88.84;100203.00;1442582;89;21687;-82
2023/04/17 08:10:51;;;;;;;9.07;5.10;;;;;;;12.46;87.02;100189.89;1462360;89;21612;-82
2023/04/17 08:13:17;;;;;;;10.97;5.87;;;;;;;12.54;87.76;100197.35;1465215;89;21584;-81
2023/04/17 08:15:44;;;;;;;6.30;5.00;;;;;;;12.70;87.58;100196.53;1461119;89;21612;-81
2023/04/17 08:18:11;;;;;;;8.40;4.73;;;;;;;12.78;86.61;100194.38;1465389;89;21473;-82
2023/04/17 08:20:37;;;;;;;7.37;4.80;;;;;;;12.90;84.70;100191.70;1464749;89;21465;-82
2023/04/17 08:23:04;;;;;;;8.13;4.97;;;;;;;13.08;85.76;100191.50;1466337;89;21451;-82
2023/04/17 08:25:31;;;;;;;7.60;4.83;;;;;;;13.28;85.54;100189.32;1447511;89;21428;-82
2023/04/17 08:27:57;;;;;;;9.07;5.57;;;;;;;13.37;83.16;100194.94;1445745;89;21472;-81
2023/04/17 08:30:24;;;;;;;8.50;4.77;;;;;;;13.44;84.16;100187.95;1461711;89;22404;-83
2023/04/17 08:32:51;;;;;;;6.23;4.10;;;;;;;13.59;84.34;100188.05;1466581;89;21495;-81
2023/04/17 08:35:17;;;;;;;5.33;4.07;;;;;;;13.59;82.75;100188.55;1444149;89;21517;-82
2023/04/17 08:37:47;;;;;;;4.60;3.20;;;;;;;13.73;81.86;100183.83;1458626;89;21532;-82
2023/04/17 08:40:14;;;;;;;6.03;4.15;;;;;;;13.56;81.02;100174.27;1451109;89;22536;-82
2023/04/17 08:42:46;;;;;;;9.50;4.37;;;;;;;13.49;80.44;100188.27;1463171;89;21510;-82
2023/04/17 08:45:12;;;;;;;3.85;3.20;;;;;;;13.41;81.43;100189.62;1441405;89;21657;-82
2023/04/17 08:47:41;;;;;;;5.73;3.60;;;;;;;13.41;81.37;100191.45;1457474;89;21473;-81
2023/04/17 08:50:13;;;;;;;5.50;4.27;;;;;;;13.40;82.15;100195.92;1456872;89;21621;-82
2023/04/17 08:52:43;;;;;;;4.33;3.50;;;;;;;13.31;81.81;100192.45;1456506;89;21679;-81
2023/04/17 08:55:19;;;;;;;4.28;3.60;;;;;;;13.18;81.49;100188.16;1453321;89;22435;-81
2023/04/17 08:58:03;;;;;;;3.47;3.13;;;;;;;13.25;82.63;100186.97;1456351;89;21510;-81
2023/04/17 09:00:33;;;;;;;8.73;4.83;;;;;;;13.46;81.34;100186.42;1432399;89;21444;-81
2023/04/17 09:03:03;;;;;;;4.25;3.45;;;;;;;13.68;81.81;100182.19;1457488;89;21577;-81
2023/04/17 09:05:37;;;;;;;6.20;3.45;;;;;;;13.81;80.05;100178.48;1436725;89;21518;-81
2023/04/17 09:08:19;;;;;;;5.93;3.03;;;;;;;13.89;79.31;100174.41;1460257;89;22346;-81
2023/04/17 09:10:49;;;;;;;5.37;3.50;;;;;;;13.84;78.00;100176.80;1460321;89;22389;-81
2023/04/17 09:13:19;;;;;;;4.60;3.65;;;;;;;13.88;77.28;100170.11;1434540;89;21459;-80
2023/04/17 09:15:48;;;;;;;4.97;3.40;;;;;;;13.89;77.84;100167.77;1459395;89;22412;-81
2023/04/17 09:18:26;;;;;;;4.50;3.27;;;;;;;14.11;77.98;100163.98;1450249;89;22464;-82
2023/04/17 09:20:53;;;;;;;4.27;3.10;;;;;;;14.07;77.00;100170.65;1463434;89;21459;-80
2023/04/17 09:23:19;;;;;;;5.20;2.97;;;;;;;14.20;76.59;100168.23;1460088;89;21458;-81
2023/04/17 09:25:48;;;;;;;4.97;3.10;;;;;;;14.14;75.06;100162.30;1459120;89;21558;-81
2023/04/17 09:28:15;;;;;;;4.53;3.63;;;;;;;14.39;75.90;100171.76;1448722;89;21436;-81
2023/04/17 09:30:41;;;;;;;5.23;3.40;;;;;;;14.55;74.89;100167.33;1452896;89;21458;-82
2023/04/17 09:33:10;;;;;;;6.80;3.23;;;;;;;14.59;73.59;100173.97;1440480;89;21612;-81
2023/04/17 09:35:38;;;;;;;7.47;3.23;;;;;;;14.75;73.75;100167.14;1461026;89;21703;-81
2023/04/17 09:38:05;;;;;;;6.03;3.50;;;;;;;14.97;73.73;100163.28;1447329;89;21489;-80
2023/04/17 09:40:40;;;;;;;5.47;3.60;;;;;;;14.95;72.29;100166.63;1429020;90;21592;-80
2023/04/17 09:43:09;;;;;;;4.67;2.70;;;;;;;15.09;73.11;100166.63;1449907;90;21611;-81
2023/04/17 09:45:38;;;;;;;4.60;2.83;;;;;;;15.08;72.37;100161.50;1430701;90;21452;-82
2023/04/17 09:48:10;;;;;;;5.60;3.13;;;;;;;15.04;72.80;100162.86;1445502;89;21533;-82
2023/04/17 09:50:37;;;;;;;6.47;3.80;;;;;;;15.21;73.02;100159.00;1447569;90;22579;-82
2023/04/17 09:53:05;;;;;;;5.70;3.43;;;;;;;15.38;72.75;100161.48;1442943;90;21583;-82
2023/04/17 09:55:32;;;;;;;5.37;2.73;;;;;;;15.53;72.04;100162.28;1431854;90;22471;-83
2023/04/17 09:58:02;;;;;;;2.97;2.30;;;;;;;15.75;71.28;100150.69;1454653;89;21430;-82
2023/04/17 10:00:29;;;;;;;3.20;2.50;;;;;;;15.75;70.32;100146.69;1432841;90;21466;-82
2023/04/17 10:02:58;;;;;;;2.67;2.17;;;;;;;15.76;70.67;100142.17;1447003;90;21478;-83
2023/04/17 10:05:27;;;;;;;5.83;2.67;;;;;;;15.98;70.59;100143.03;1457188;89;21473;-83
2023/04/17 10:07:55;;;;;;;3.50;3.00;;;;;;;16.24;68.96;100141.13;1444434;90;21696;-82
2023/04/17 10:10:30;;;;;;;5.43;2.73;;;;;;;16.45;69.67;100145.61;1430658;90;21423;-81
2023/04/17 10:13:00;;;;;;;5.27;2.43;;;;;;;16.64;68.12;100150.30;1442501;90;21452;-82
2023/04/17 10:15:28;;;;;;;4.23;2.50;;;;;;;16.63;67.09;100149.14;1432472;90;21602;-82
2023/04/17 10:17:56;;;;;;;3.77;2.17;;;;;;;16.99;68.42;100145.02;1446586;90;21400;-82
2023/04/17 10:20:28;;;;;;;4.37;2.07;;;;;;;17.29;64.37;100142.08;1439364;90;21496;-82
2023/04/17 10:22:55;;;;;;;4.00;2.10;;;;;;;17.42;62.37;100138.66;1435939;90;21467;-82
2023/04/17 10:25:26;;;;;;;6.90;2.80;;;;;;;17.19;63.08;100134.95;1441942;90;22339;-82
2023/04/17 10:27:59;;;;;;;4.67;2.47;;;;;;;17.62;64.17;100138.75;1448971;90;21400;-81
2023/04/17 10:30:53;;;;;;;5.12;2.80;;;;;;;17.98;62.04;100136.62;1446710;89;21341;-82
2023/04/17 10:33:23;;;;;;;2.02;1.82;;;;;;;17.86;63.18;100137.39;1437832;90;21459;-82
2023/04/17 10:35:50;;;;;;;2.87;2.15;;;;;;;17.72;59.85;100133.82;1449007;89;21525;-82
2023/04/17 10:38:34;;;;;;;2.90;1.98;;;;;;;17.54;61.24;100129.03;1444936;90;21548;-82
2023/04/17 10:41:03;;;;;;;3.98;2.15;;;;;;;17.92;61.73;100134.72;1450101;89;21607;-82
2023/04/17 10:43:30;;;;;;;5.22;2.37;;;;;;;18.10;59.71;100127.98;1446593;90;21415;-82
2023/04/17 10:46:06;;;;;;;2.37;2.17;;;;;;;18.43;61.12;100126.66;1429930;90;21540;-82
2023/04/17 10:48:52;;;;;;;2.98;2.25;;;;;;;18.54;59.36;100123.36;1451235;90;21452;-80
2023/04/17 10:51:27;;;;;;;2.70;2.15;;;;;;;18.01;59.59;100124.16;1440814;90;21334;-82
2023/04/17 10:54:01;;;;;;;2.70;2.25;;;;;;;17.71;61.26;100119.63;1446276;90;21489;-82
2023/04/17 10:56:39;;;;;;;3.95;3.00;;;;;;;17.88;61.90;100125.46;1451901;90;21543;-82
2023/04/17 10:59:10;;;;;;;5.03;2.02;;;;;;;18.13;61.50;100110.17;1439446;90;21615;-82
2023/04/17 11:01:51;;;;;;;6.08;2.62;;;;;;;17.73;60.50;100110.06;1452416;90;21407;-82
2023/04/17 11:04:30;;;;;;;7.50;2.90;;;;;;;17.51;61.30;100106.17;1444626;90;21474;-81
2023/04/17 11:06:57;;;;;;;5.20;3.15;;;;;;;17.58;62.10;100104.87;1450073;89;21644;-80
2023/04/17 11:09:28;;;;;;;3.75;3.05;;;;;;;17.84;62.29;100104.16;1433819;90;21422;-82
2023/04/17 11:12:03;;;;;;;3.92;2.17;;;;;;;17.88;62.08;100102.70;1446333;90;21481;-82
2023/04/17 11:14:27;;;;;;;3.77;2.73;;;;;;;17.80;61.70;100101.55;1445285;90;21526;-80
2023/04/17 11:16:55;;;;;;;3.13;2.60;;;;;;;17.44;60.56;100105.34;1447911;90;22516;-82
2023/04/17 11:19:25;;;;;;;4.00;2.77;;;;;;;17.28;61.23;100101.15;1449060;90;21606;-81
2023/04/17 11:22:00;;;;;;;6.33;3.33;;;;;;;17.17;61.78;100103.56;1434093;90;21681;-82
2023/04/17 11:24:29;;;;;;;3.43;2.83;;;;;;;17.03;62.48;100095.50;1429294;90;22428;-82
2023/04/17 11:27:02;;;;;;;4.20;3.10;;;;;;;16.72;62.28;100092.41;1452567;90;21629;-82
2023/04/17 11:29:28;;;;;;;6.30;3.57;;;;;;;16.55;62.70;100094.03;1444159;89;21438;-82